createdAt,value
2022-12-14T00:00:27.733Z,30.27
2022-12-14T00:02:57.256Z,24.07
2022-12-14T00:05:29.401Z,25.83
2022-12-14T00:07:58.246Z,25.77
2022-12-14T00:10:27.365Z,24.60
2022-12-14T00:12:56.325Z,24.47
2022-12-14T00:15:25.448Z,26.33
2022-12-14T00:17:54.474Z,23.80
2022-12-14T00:20:23.816Z,24.00
2022-12-14T00:22:55.316Z,22.23
2022-12-14T00:25:25.519Z,21.40
2022-12-14T00:27:54.563Z,20.57
2022-12-14T00:30:23.410Z,18.23
2022-12-14T00:32:52.258Z,21.37
2022-12-14T00:35:21.154Z,20.37
2022-12-14T00:37:50.099Z,20.63
2022-12-14T00:40:20.805Z,19.57
2022-12-14T00:42:49.776Z,21.60
2022-12-14T00:45:18.866Z,19.63
2022-12-14T00:47:47.746Z,23.80
2022-12-14T00:50:16.816Z,20.70
2022-12-14T00:52:45.645Z,21.10
2022-12-14T00:55:16.382Z,21.27
2022-12-14T00:57:46.677Z,16.80
2022-12-14T01:00:17.573Z,19.43
2022-12-14T01:02:46.609Z,22.00
2022-12-14T01:05:15.655Z,21.90
2022-12-14T01:07:44.641Z,20.80
2022-12-14T01:10:17.869Z,18.47
2022-12-14T01:12:48.189Z,20.10
2022-12-14T01:15:17.288Z,20.17
2022-12-14T01:17:46.235Z,19.60
2022-12-14T01:20:15.190Z,21.10
2022-12-14T01:22:43.998Z,23.33
2022-12-14T01:25:13.454Z,21.57
2022-12-14T01:27:45.702Z,20.97
2022-12-14T01:33:28.248Z,21.97
2022-12-14T01:36:01.960Z,20.57
2022-12-14T01:38:40.527Z,23.53
2022-12-14T01:41:18.566Z,20.43
2022-12-14T01:43:49.832Z,20.07
2022-12-14T01:46:26.813Z,19.57
2022-12-14T01:49:03.911Z,18.27
2022-12-14T01:51:36.154Z,22.67
2022-12-14T01:54:11.713Z,24.33
2022-12-14T01:56:46.142Z,21.63
2022-12-14T01:59:20.382Z,20.73
2022-12-14T02:01:50.326Z,25.10
2022-12-14T02:04:22.226Z,23.73
2022-12-14T02:06:59.406Z,19.93
2022-12-14T02:09:37.968Z,22.23
2022-12-14T02:12:16.134Z,22.73
2022-12-14T02:14:46.664Z,20.83
2022-12-14T02:17:17.260Z,20.50
2022-12-14T02:19:49.575Z,18.90
2022-12-14T02:23:01.403Z,22.37
2022-12-14T02:26:14.195Z,20.77
2022-12-14T02:29:35.419Z,19.27
2022-12-14T02:32:24.173Z,20.70
2022-12-14T02:35:05.368Z,22.77
2022-12-14T02:37:49.264Z,18.80
2022-12-14T02:40:31.302Z,18.20
2022-12-14T02:43:15.241Z,22.67
2022-12-14T02:45:56.703Z,17.23
2022-12-14T02:48:35.876Z,20.70
2022-12-14T02:51:21.961Z,20.53
2022-12-14T02:54:02.493Z,18.97
2022-12-14T02:56:39.524Z,22.67
2022-12-14T02:59:10.772Z,21.20
2022-12-14T03:01:45.391Z,21.27
2022-12-14T03:04:17.421Z,22.53
2022-12-14T03:07:00.125Z,22.93
2022-12-14T03:09:32.553Z,20.57
2022-12-14T03:12:08.396Z,20.17
2022-12-14T03:14:46.150Z,22.23
2022-12-14T03:17:23.268Z,20.00
2022-12-14T03:20:00.936Z,20.67
2022-12-14T03:22:40.749Z,18.10
2022-12-14T03:25:16.084Z,22.30
2022-12-14T03:27:52.225Z,21.50
2022-12-14T03:30:44.322Z,17.27
2022-12-14T03:33:22.453Z,19.17
2022-12-14T03:35:59.006Z,18.03
2022-12-14T03:38:37.218Z,20.90
2022-12-14T03:41:24.184Z,20.20
2022-12-14T03:44:26.192Z,19.53
2022-12-14T03:47:05.394Z,18.53
2022-12-14T03:49:56.708Z,19.43
2022-12-14T03:52:34.053Z,20.23
2022-12-14T03:55:25.335Z,23.17
2022-12-14T03:58:15.813Z,26.47
2022-12-14T04:00:53.615Z,24.27
2022-12-14T04:03:37.684Z,71.63
2022-12-14T04:06:15.357Z,75.43
2022-12-14T04:08:51.871Z,57.17
2022-12-14T04:11:42.091Z,41.53
2022-12-14T04:14:33.624Z,31.90
2022-12-14T04:17:28.987Z,34.00
2022-12-14T04:20:08.140Z,25.83
2022-12-14T04:22:46.159Z,20.27
2022-12-14T04:25:39.841Z,26.03
2022-12-14T04:28:29.743Z,22.40
2022-12-14T04:31:03.142Z,21.33
2022-12-14T04:33:50.528Z,23.60
2022-12-14T04:36:26.693Z,20.33
2022-12-14T04:39:03.730Z,18.40
2022-12-14T04:41:39.490Z,20.97
2022-12-14T04:44:17.344Z,21.00
2022-12-14T04:46:48.033Z,16.63
2022-12-14T04:49:28.327Z,14.57
2022-12-14T04:52:06.252Z,18.63
2022-12-14T04:54:48.431Z,17.23
2022-12-14T04:57:32.530Z,34.43
2022-12-14T05:00:04.318Z,53.87
2022-12-14T05:02:58.148Z,119.37
2022-12-14T05:05:36.357Z,98.37
2022-12-14T05:08:13.552Z,100.77
2022-12-14T05:10:50.321Z,158.27
2022-12-14T05:13:27.111Z,192.27
2022-12-14T05:15:59.917Z,139.13
2022-12-14T05:18:29.232Z,135.30
2022-12-14T05:20:58.173Z,102.83
2022-12-14T05:23:27.261Z,79.97
2022-12-14T05:26:00.236Z,76.77
2022-12-14T05:28:32.397Z,139.10
2022-12-14T05:31:01.839Z,71.73
2022-12-14T05:33:33.635Z,75.97
2022-12-14T05:36:02.624Z,66.53
2022-12-14T05:38:31.882Z,68.53
2022-12-14T05:41:02.749Z,63.30
2022-12-14T05:43:31.493Z,53.63
2022-12-14T05:46:00.802Z,46.57
2022-12-14T05:48:30.100Z,41.30
2022-12-14T05:51:07.654Z,35.47
2022-12-14T05:53:36.747Z,35.77
2022-12-14T05:56:08.735Z,36.17
2022-12-14T05:58:39.685Z,31.37
2022-12-14T06:01:17.043Z,28.50
2022-12-14T06:03:47.836Z,25.57
2022-12-14T06:06:16.696Z,26.30
2022-12-14T06:08:47.401Z,24.87
2022-12-14T06:11:20.398Z,27.93
2022-12-14T06:13:50.434Z,26.93
2022-12-14T06:16:23.086Z,25.47
2022-12-14T06:18:54.214Z,42.40
2022-12-14T06:21:25.795Z,31.77
2022-12-14T06:23:56.468Z,89.13
2022-12-14T06:26:29.028Z,102.70
2022-12-14T06:28:59.472Z,26.53
2022-12-14T06:31:31.229Z,25.37
2022-12-14T06:34:28.772Z,20.97
2022-12-14T06:36:57.661Z,30.27
2022-12-14T06:39:26.556Z,23.37
2022-12-14T06:41:56.704Z,23.87
2022-12-14T06:44:25.574Z,34.13
2022-12-14T06:46:54.406Z,23.53
2022-12-14T06:49:23.761Z,22.03
2022-12-14T06:51:53.035Z,22.17
2022-12-14T06:54:22.105Z,22.40
2022-12-14T06:56:50.872Z,21.67
2022-12-14T06:59:21.054Z,33.47
2022-12-14T07:01:50.447Z,50.80
2022-12-14T07:04:21.482Z,23.23
2022-12-14T07:06:50.532Z,21.30
2022-12-14T07:09:19.674Z,24.00
2022-12-14T07:11:52.131Z,28.60
2022-12-14T07:14:22.436Z,22.30
2022-12-14T07:16:52.619Z,22.73
2022-12-14T07:19:22.475Z,25.30
2022-12-14T07:21:54.264Z,22.20
2022-12-14T07:24:23.058Z,27.20
2022-12-14T07:26:51.828Z,31.40
2022-12-14T07:29:21.983Z,49.97
2022-12-14T07:31:50.706Z,52.07
2022-12-14T07:34:19.516Z,62.43
2022-12-14T07:36:51.972Z,57.93
2022-12-14T07:39:22.440Z,53.43
2022-12-14T07:41:54.672Z,51.47
2022-12-14T07:44:25.403Z,54.17
2022-12-14T07:46:55.279Z,52.80
2022-12-14T07:52:21.230Z,45.30
2022-12-14T07:54:48.999Z,38.47
2022-12-14T07:57:17.748Z,45.97
2022-12-14T07:59:46.470Z,52.10
2022-12-14T08:02:16.653Z,43.53
2022-12-14T08:04:45.740Z,45.10
2022-12-14T08:07:14.487Z,46.27
2022-12-14T08:09:44.629Z,43.40
2022-12-14T08:12:13.574Z,43.50
2022-12-14T08:14:42.506Z,46.03
2022-12-14T08:17:11.327Z,48.43
2022-12-14T08:19:40.134Z,40.87
2022-12-14T08:22:08.964Z,41.50
2022-12-14T08:24:37.701Z,45.13
2022-12-14T08:27:07.933Z,40.03
2022-12-14T08:29:36.759Z,46.83
2022-12-14T08:32:06.175Z,44.77
2022-12-14T08:34:34.927Z,45.50
2022-12-14T08:37:03.686Z,41.93
2022-12-14T08:39:32.628Z,43.93
2022-12-14T08:42:01.393Z,40.60
2022-12-14T08:44:31.490Z,42.67
2022-12-14T08:47:00.443Z,39.30
2022-12-14T08:49:32.478Z,42.20
2022-12-14T08:52:01.628Z,38.80
2022-12-14T08:54:30.700Z,44.37
2022-12-14T08:57:00.025Z,38.67
2022-12-14T08:59:59.301Z,38.50
2022-12-14T09:02:19.209Z,49.93
2022-12-14T09:04:48.032Z,47.67
2022-12-14T09:07:16.797Z,46.90
2022-12-14T09:09:45.623Z,38.97
2022-12-14T09:12:14.513Z,40.93
2022-12-14T09:14:46.725Z,39.23
2022-12-14T09:17:19.084Z,40.70
2022-12-14T09:19:47.822Z,38.07
2022-12-14T09:22:16.745Z,38.80
2022-12-14T09:24:45.813Z,41.73
2022-12-14T09:27:14.598Z,39.27
2022-12-14T09:29:44.927Z,41.30
2022-12-14T09:32:14.342Z,43.00
2022-12-14T09:34:43.144Z,40.83
2022-12-14T09:37:12.670Z,42.17
2022-12-14T09:39:41.768Z,38.93
2022-12-14T09:42:38.427Z,42.40
2022-12-14T09:45:22.773Z,55.00
2022-12-14T09:48:02.049Z,53.53
2022-12-14T09:50:31.578Z,57.57
2022-12-14T09:53:06.617Z,55.47
2022-12-14T09:55:39.396Z,52.37
2022-12-14T09:58:22.279Z,52.57
2022-12-14T10:01:04.500Z,60.23
2022-12-14T10:03:52.408Z,45.13
2022-12-14T10:06:37.333Z,42.03
2022-12-14T10:09:20.680Z,38.13
2022-12-14T10:12:05.234Z,73.13
2022-12-14T10:15:02.033Z,34.43
2022-12-14T10:18:00.308Z,37.13
2022-12-14T10:20:43.081Z,160.60
2022-12-14T10:23:22.800Z,51.10
2022-12-14T10:25:57.814Z,41.17
2022-12-14T10:28:43.212Z,41.30
2022-12-14T10:31:17.611Z,27.77
2022-12-14T10:33:49.167Z,25.47
2022-12-14T10:36:24.431Z,26.77
2022-12-14T10:39:01.863Z,28.27
2022-12-14T10:41:42.067Z,28.27
2022-12-14T10:44:23.644Z,30.43
2022-12-14T10:47:02.858Z,28.80
2022-12-14T10:49:45.992Z,31.00
2022-12-14T10:52:20.976Z,30.43
2022-12-14T10:54:55.201Z,28.77
2022-12-14T10:57:27.689Z,29.77
2022-12-14T11:00:08.539Z,26.47
2022-12-14T11:02:43.977Z,25.30
2022-12-14T11:05:36.060Z,29.07
2022-12-14T11:08:07.984Z,28.73
2022-12-14T11:10:39.868Z,25.60
2022-12-14T11:13:21.936Z,27.37
2022-12-14T11:15:53.809Z,25.00
2022-12-14T11:18:32.196Z,27.70
2022-12-14T11:21:06.163Z,26.93
2022-12-14T11:23:41.855Z,27.10
2022-12-14T11:26:16.585Z,27.17
2022-12-14T11:28:51.613Z,28.27
2022-12-14T11:31:27.174Z,30.97
2022-12-14T11:33:58.780Z,28.67
2022-12-14T11:36:38.096Z,27.87
2022-12-14T11:39:22.742Z,28.50
2022-12-14T11:42:00.916Z,28.93
2022-12-14T11:44:38.641Z,27.93
2022-12-14T11:47:14.267Z,27.87
2022-12-14T11:49:47.718Z,26.80
2022-12-14T11:52:21.276Z,27.17
2022-12-14T11:55:13.061Z,27.03
2022-12-14T11:57:53.868Z,23.17
2022-12-14T12:00:29.504Z,27.37
2022-12-14T12:03:06.379Z,25.80
2022-12-14T12:05:44.247Z,24.97
2022-12-14T12:08:28.325Z,24.97
2022-12-14T12:11:02.609Z,27.10
2022-12-14T12:13:40.829Z,26.30
2022-12-14T12:23:24.917Z,24.67
2022-12-14T12:25:57.566Z,27.10
2022-12-14T12:28:32.509Z,27.23
2022-12-14T12:31:11.502Z,27.27
2022-12-14T12:33:48.704Z,25.97
2022-12-14T12:36:24.297Z,25.20
2022-12-14T12:39:09.136Z,26.60
2022-12-14T12:41:54.378Z,25.03
2022-12-14T12:44:49.810Z,25.93
2022-12-14T12:47:46.063Z,26.33
2022-12-14T12:50:20.518Z,27.07
2022-12-14T12:53:03.043Z,28.23
2022-12-14T12:55:43.079Z,27.47
2022-12-14T12:58:22.260Z,29.00
2022-12-14T13:00:55.633Z,28.13
2022-12-14T13:03:32.411Z,25.57
2022-12-14T13:06:15.415Z,25.37
2022-12-14T13:08:49.950Z,28.50
2022-12-14T13:11:28.184Z,31.87
2022-12-14T13:14:04.461Z,31.33
2022-12-14T13:17:36.106Z,29.33
2022-12-14T13:20:16.817Z,34.37
2022-12-14T13:22:47.837Z,36.13
2022-12-14T13:25:24.499Z,39.53
2022-12-14T13:28:30.191Z,34.03
2022-12-14T13:31:18.233Z,38.57
2022-12-14T13:34:16.098Z,33.80
2022-12-14T13:37:45.575Z,34.80
2022-12-14T13:40:55.152Z,36.23
2022-12-14T13:43:52.180Z,32.83
2022-12-14T13:46:26.058Z,34.90
2022-12-14T13:49:00.107Z,34.07
2022-12-14T13:51:36.909Z,37.67
2022-12-14T13:54:17.617Z,39.13
2022-12-14T13:56:47.737Z,35.83
2022-12-14T13:59:33.073Z,34.37
2022-12-14T14:02:06.230Z,33.53
2022-12-14T14:04:36.807Z,37.47
2022-12-14T14:07:51.964Z,36.07
2022-12-14T14:10:34.683Z,36.03
2022-12-14T14:14:04.514Z,36.80
2022-12-14T14:16:43.995Z,37.40
2022-12-14T14:19:24.123Z,37.23
2022-12-14T14:22:26.257Z,34.97
2022-12-14T14:25:01.185Z,38.53
2022-12-14T14:27:37.749Z,39.60
2022-12-14T14:36:26.374Z,41.57
2022-12-14T14:38:58.510Z,40.53
2022-12-14T14:41:42.354Z,55.30
2022-12-14T14:44:31.748Z,39.67
2022-12-14T14:47:07.394Z,36.90
2022-12-14T14:49:43.036Z,37.93
2022-12-14T14:52:59.961Z,41.70
2022-12-14T14:56:33.643Z,34.23
2022-12-14T14:59:51.015Z,38.03
2022-12-14T15:02:39.213Z,39.73
2022-12-14T15:05:41.605Z,39.20
2022-12-14T15:08:20.099Z,35.73
2022-12-14T15:10:51.815Z,38.30
2022-12-14T15:13:26.803Z,37.90
2022-12-14T15:15:56.668Z,37.40
2022-12-14T15:18:28.668Z,32.43
2022-12-14T15:21:03.241Z,38.03
2022-12-14T15:23:38.625Z,35.50
2022-12-14T15:26:17.418Z,36.90
2022-12-14T15:29:04.744Z,35.50
2022-12-14T15:31:40.009Z,38.73
2022-12-14T15:34:17.214Z,36.73
2022-12-14T15:36:47.343Z,35.53
2022-12-14T15:39:45.894Z,36.07
2022-12-14T15:42:18.463Z,40.83
2022-12-14T15:44:52.087Z,39.53
2022-12-14T15:47:30.334Z,40.43
2022-12-14T15:50:25.558Z,39.00
2022-12-14T15:52:59.695Z,39.80
2022-12-14T15:55:35.594Z,38.10
2022-12-14T15:58:16.647Z,38.50
2022-12-14T16:00:49.000Z,38.07
2022-12-14T16:03:29.460Z,40.97
2022-12-14T16:06:01.394Z,40.93
2022-12-14T16:08:32.777Z,38.57
2022-12-14T16:11:07.221Z,45.83
2022-12-14T16:13:41.566Z,43.40
2022-12-14T16:16:17.416Z,40.97
2022-12-14T16:18:50.575Z,42.63
2022-12-14T16:21:31.684Z,45.67
2022-12-14T16:24:13.905Z,45.70
2022-12-14T16:26:44.263Z,45.20
2022-12-14T16:29:23.436Z,47.47
2022-12-14T16:31:52.404Z,51.30
2022-12-14T16:34:23.590Z,50.50
2022-12-14T16:39:49.745Z,53.27
2022-12-14T16:42:25.368Z,48.17
2022-12-14T16:44:56.397Z,48.67
2022-12-14T16:48:04.763Z,48.53
2022-12-14T16:50:55.889Z,41.97
2022-12-14T16:58:28.487Z,47.33
2022-12-14T17:01:03.778Z,47.93
2022-12-14T17:03:35.120Z,46.33
2022-12-14T17:06:07.729Z,43.87
2022-12-14T17:08:36.883Z,43.43
2022-12-14T17:11:06.688Z,46.43
2022-12-14T17:13:37.010Z,45.27
2022-12-14T17:16:09.329Z,43.13
2022-12-14T17:18:41.891Z,41.50
2022-12-14T17:21:23.706Z,40.93
2022-12-14T17:23:53.406Z,42.10
2022-12-14T17:26:26.816Z,42.43
2022-12-14T17:28:58.707Z,42.10
2022-12-14T17:31:29.243Z,39.70
2022-12-14T17:33:58.953Z,45.47
2022-12-14T17:36:28.104Z,47.87
2022-12-14T17:38:57.129Z,50.23
2022-12-14T17:41:29.002Z,50.40
2022-12-14T17:44:03.654Z,43.40
2022-12-14T17:46:35.969Z,43.43
2022-12-14T17:49:07.483Z,40.27
2022-12-14T17:51:42.238Z,40.30
2022-12-14T17:54:18.414Z,38.73
2022-12-14T17:56:48.528Z,37.93
2022-12-14T17:59:18.967Z,42.07
2022-12-14T18:01:48.845Z,38.90
2022-12-14T18:04:18.747Z,35.80
2022-12-14T18:06:48.165Z,39.17
2022-12-14T18:09:19.111Z,45.57
2022-12-14T18:12:21.010Z,57.53
2022-12-14T18:14:38.931Z,46.43
2022-12-14T18:21:19.684Z,49.97
2022-12-14T18:23:49.578Z,47.10
2022-12-14T18:26:21.126Z,47.80
2022-12-14T18:28:51.327Z,45.37
2022-12-14T18:31:25.899Z,41.90
2022-12-14T18:33:55.070Z,39.77
2022-12-14T18:36:24.922Z,41.33
2022-12-14T18:41:30.578Z,49.57
2022-12-14T18:44:00.792Z,61.50
2022-12-14T18:46:29.941Z,61.23
2022-12-14T18:49:01.525Z,49.97
2022-12-14T18:51:38.054Z,47.73
2022-12-14T18:54:43.700Z,49.30
2022-12-14T18:57:42.897Z,45.87
2022-12-14T19:00:20.442Z,43.00
2022-12-14T19:02:50.205Z,45.17
2022-12-14T19:05:26.039Z,50.43
2022-12-14T19:07:57.555Z,44.97
2022-12-14T19:10:34.180Z,51.77
2022-12-14T19:13:04.617Z,45.57
2022-12-14T19:15:36.865Z,46.93
2022-12-14T19:18:06.000Z,55.87
2022-12-14T19:20:35.162Z,53.63
2022-12-14T19:23:34.825Z,53.13
2022-12-14T19:26:04.932Z,48.80
2022-12-14T19:28:35.377Z,56.80
2022-12-14T19:31:06.989Z,56.40
2022-12-14T19:33:36.463Z,51.03
2022-12-14T19:36:07.011Z,49.67
2022-12-14T19:38:37.021Z,50.17
2022-12-14T19:41:10.014Z,49.97
2022-12-14T19:43:40.756Z,52.00
2022-12-14T19:46:11.741Z,54.30
2022-12-14T19:48:42.242Z,69.90
2022-12-14T19:51:14.692Z,71.00
2022-12-14T19:53:46.004Z,58.23
2022-12-14T19:56:20.738Z,65.70
2022-12-14T19:58:51.204Z,70.73
2022-12-14T20:01:20.086Z,97.53
2022-12-14T20:07:56.141Z,154.47
2022-12-14T20:10:23.653Z,141.43
2022-12-14T20:12:51.120Z,134.87
2022-12-14T20:15:18.734Z,121.63
2022-12-14T20:17:46.286Z,96.80
2022-12-14T20:20:13.737Z,88.23
2022-12-14T20:22:41.122Z,79.87
2022-12-14T20:31:37.782Z,50.90
2022-12-14T20:34:06.605Z,46.67
2022-12-14T20:36:34.077Z,46.63
2022-12-14T20:39:02.160Z,44.13
2022-12-14T20:41:31.190Z,45.40
2022-12-14T20:44:01.411Z,44.90
2022-12-14T20:46:32.207Z,48.40
2022-12-14T21:04:27.980Z,40.63
2022-12-14T21:06:55.439Z,42.80
2022-12-14T21:09:22.978Z,39.20
2022-12-14T21:12:24.463Z,39.10
2022-12-14T21:14:56.460Z,38.57
2022-12-14T21:17:28.284Z,36.87
2022-12-14T21:19:59.367Z,37.70
2022-12-14T21:22:30.483Z,35.97
2022-12-14T21:25:04.894Z,38.20
2022-12-14T21:27:38.511Z,40.63
2022-12-14T21:30:10.827Z,38.97
2022-12-14T21:32:39.916Z,72.87
2022-12-14T21:35:11.525Z,60.73
2022-12-14T21:37:40.624Z,62.43
2022-12-14T21:40:31.170Z,58.10
2022-12-14T21:42:58.951Z,57.37
2022-12-14T21:45:27.752Z,47.93
2022-12-14T21:47:57.742Z,43.10
2022-12-14T21:50:27.895Z,42.77
2022-12-14T21:52:56.643Z,43.73
2022-12-14T21:55:25.404Z,46.10
2022-12-14T21:58:11.491Z,44.90
2022-12-14T22:00:40.305Z,46.07
2022-12-14T22:03:09.143Z,47.43
2022-12-14T22:05:40.945Z,46.40
2022-12-14T22:08:09.719Z,50.77
2022-12-14T22:10:38.376Z,48.13
2022-12-14T22:13:07.027Z,48.90
2022-12-14T22:15:36.784Z,50.33
2022-12-14T22:18:05.818Z,43.37
2022-12-14T22:20:34.598Z,44.47
2022-12-14T22:27:44.197Z,43.87
2022-12-14T22:36:29.830Z,43.43
2022-12-14T22:52:28.361Z,35.67
2022-12-14T23:27:10.365Z,36.60
2022-12-14T23:29:56.740Z,37.00
2022-12-14T23:32:42.682Z,37.70
2022-12-14T23:35:28.924Z,35.57
2022-12-14T23:38:22.413Z,34.60
2022-12-14T23:41:08.961Z,36.63
2022-12-14T23:43:55.484Z,34.23
2022-12-14T23:46:41.450Z,35.37
2022-12-14T23:49:28.043Z,32.70
2022-12-14T23:52:14.250Z,33.93
2022-12-14T23:55:01.735Z,35.23
2022-12-14T23:57:48.046Z,33.97
